createdAt,value
2018-04-17T00:00:16.387Z,25.00
2018-04-17T00:01:19.295Z,20.00
2018-04-17T00:02:22.488Z,23.00
2018-04-17T00:03:25.406Z,21.00
2018-04-17T00:04:28.307Z,20.00
2018-04-17T00:05:31.218Z,18.25
2018-04-17T00:06:34.079Z,22.75
2018-04-17T00:07:37.007Z,19.50
2018-04-17T00:08:40.109Z,18.00
2018-04-17T00:09:42.909Z,20.00
2018-04-17T00:10:45.738Z,21.25
2018-04-17T00:11:48.535Z,20.00
2018-04-17T00:12:51.339Z,18.75
2018-04-17T00:13:54.141Z,20.00
2018-04-17T00:14:57.315Z,20.00
2018-04-17T00:16:00.150Z,21.50
2018-04-17T00:17:02.964Z,18.25
2018-04-17T00:18:05.783Z,21.75
2018-04-17T00:19:08.629Z,20.00
2018-04-17T00:20:11.848Z,19.00
2018-04-17T00:21:15.251Z,22.75
2018-04-17T00:22:18.179Z,19.25
2018-04-17T00:23:21.180Z,17.00
2018-04-17T00:24:24.148Z,16.75
2018-04-17T00:25:27.101Z,21.00
2018-04-17T00:26:30.084Z,18.75
2018-04-17T00:27:33.243Z,19.25
2018-04-17T00:28:36.380Z,21.50
2018-04-17T00:29:39.188Z,19.75
2018-04-17T00:30:42.016Z,21.25
2018-04-17T00:31:44.826Z,19.25
2018-04-17T00:32:47.653Z,19.25
2018-04-17T00:33:50.786Z,19.50
2018-04-17T00:34:53.581Z,18.50
2018-04-17T00:35:56.390Z,18.75
2018-04-17T00:36:59.184Z,18.75
2018-04-17T00:38:01.896Z,18.75
2018-04-17T00:39:04.828Z,19.25
2018-04-17T00:40:07.811Z,20.00
2018-04-17T00:41:10.530Z,17.00
2018-04-17T00:42:13.230Z,18.75
2018-04-17T00:43:15.950Z,21.00
2018-04-17T00:44:18.757Z,21.00
2018-04-17T00:45:21.574Z,18.25
2018-04-17T00:46:24.792Z,19.75
2018-04-17T00:47:27.617Z,15.00
2018-04-17T00:48:30.443Z,17.50
2018-04-17T00:49:33.256Z,20.00
2018-04-17T00:50:36.069Z,20.00
2018-04-17T00:51:38.856Z,17.00
2018-04-17T00:52:41.953Z,19.50
2018-04-17T00:53:44.812Z,17.00
2018-04-17T00:54:47.590Z,17.50
2018-04-17T00:55:50.365Z,17.00
2018-04-17T00:56:53.111Z,15.50
2018-04-17T00:57:55.873Z,18.75
2018-04-17T00:58:58.973Z,18.75
2018-04-17T01:00:01.717Z,19.25
2018-04-17T01:01:04.478Z,17.25
2018-04-17T01:02:07.225Z,17.00
2018-04-17T01:03:10.040Z,20.50
2018-04-17T01:04:12.988Z,18.50
2018-04-17T01:05:16.262Z,19.75
2018-04-17T01:06:19.039Z,19.00
2018-04-17T01:07:21.802Z,18.50
2018-04-17T01:08:24.611Z,20.00
2018-04-17T01:09:27.395Z,17.00
2018-04-17T01:10:30.198Z,19.25
2018-04-17T01:11:33.320Z,19.50
2018-04-17T01:12:36.138Z,23.50
2018-04-17T01:13:38.938Z,22.75
2018-04-17T01:14:41.726Z,22.75
2018-04-17T01:15:44.471Z,24.75
2018-04-17T01:16:47.253Z,17.50
2018-04-17T01:17:50.246Z,17.00
2018-04-17T01:18:52.968Z,19.50
2018-04-17T01:19:55.754Z,21.00
2018-04-17T01:20:58.471Z,20.00
2018-04-17T01:22:01.185Z,22.25
2018-04-17T01:23:03.916Z,21.50
2018-04-17T01:24:06.944Z,19.00
2018-04-17T01:25:09.777Z,22.25
2018-04-17T01:26:12.563Z,21.50
2018-04-17T01:27:15.375Z,22.25
2018-04-17T01:28:18.175Z,22.25
2018-04-17T01:29:20.996Z,18.00
2018-04-17T01:30:24.070Z,19.00
2018-04-17T01:31:26.849Z,19.00
2018-04-17T01:32:29.660Z,21.00
2018-04-17T01:33:32.476Z,17.00
2018-04-17T01:34:35.291Z,19.00
2018-04-17T01:35:38.102Z,16.25
2018-04-17T01:36:41.240Z,22.50
2018-04-17T01:37:44.102Z,19.00
2018-04-17T01:38:46.917Z,21.00
2018-04-17T01:39:49.737Z,20.00
2018-04-17T01:40:52.537Z,19.50
2018-04-17T01:41:55.342Z,17.75
2018-04-17T01:42:58.491Z,19.25
2018-04-17T01:44:01.391Z,19.00
2018-04-17T01:45:04.185Z,17.75
2018-04-17T01:46:07.021Z,17.25
2018-04-17T01:47:09.805Z,18.00
2018-04-17T01:48:12.616Z,24.00
2018-04-17T01:49:15.773Z,18.75
2018-04-17T01:50:18.565Z,20.25
2018-04-17T01:51:21.375Z,19.00
2018-04-17T01:52:24.178Z,17.00
2018-04-17T01:53:27.070Z,19.50
2018-04-17T01:54:29.863Z,16.50
2018-04-17T01:55:32.958Z,18.00
2018-04-17T01:56:35.863Z,21.00
2018-04-17T01:57:38.734Z,21.00
2018-04-17T01:58:41.624Z,19.00
2018-04-17T01:59:44.510Z,22.50
2018-04-17T02:00:47.394Z,20.75
2018-04-17T02:01:50.572Z,21.00
2018-04-17T02:02:53.906Z,20.50
2018-04-17T02:03:56.743Z,17.50
2018-04-17T02:04:59.659Z,21.00
2018-04-17T02:06:02.405Z,19.00
2018-04-17T02:07:05.168Z,18.25
2018-04-17T02:08:08.293Z,18.00
2018-04-17T02:09:11.775Z,22.50
2018-04-17T02:10:14.661Z,22.50
2018-04-17T02:11:17.506Z,23.75
2018-04-17T02:12:20.334Z,24.75
2018-04-17T02:13:23.473Z,22.75
2018-04-17T02:14:26.367Z,21.00
2018-04-17T02:15:29.835Z,24.00
2018-04-17T02:16:32.776Z,20.50
2018-04-17T02:17:35.685Z,21.00
2018-04-17T02:18:38.544Z,23.00
2018-04-17T02:19:41.736Z,21.00
2018-04-17T02:20:44.542Z,21.00
2018-04-17T02:21:47.662Z,23.00
2018-04-17T02:22:50.516Z,25.25
2018-04-17T02:23:53.433Z,19.25
2018-04-17T02:24:56.284Z,20.00
2018-04-17T02:25:59.435Z,22.25
2018-04-17T02:27:02.302Z,19.00
2018-04-17T02:28:05.180Z,22.25
2018-04-17T02:29:08.102Z,19.75
2018-04-17T02:30:10.994Z,21.50
2018-04-17T02:31:13.856Z,22.25
2018-04-17T02:32:17.180Z,23.00
2018-04-17T02:33:19.989Z,19.75
2018-04-17T02:34:22.786Z,18.25
2018-04-17T02:35:25.653Z,18.75
2018-04-17T02:36:28.570Z,20.75
2018-04-17T02:37:31.433Z,18.25
2018-04-17T02:38:34.596Z,17.75
2018-04-17T02:39:37.482Z,21.00
2018-04-17T02:40:40.381Z,18.00
2018-04-17T02:41:43.245Z,18.75
2018-04-17T02:42:46.102Z,18.75
2018-04-17T02:43:48.959Z,23.00
2018-04-17T02:44:52.204Z,21.50
2018-04-17T02:45:55.094Z,22.50
2018-04-17T02:46:57.978Z,18.25
2018-04-17T02:48:00.855Z,18.25
2018-04-17T02:49:03.744Z,17.50
2018-04-17T02:50:06.595Z,14.00
2018-04-17T02:51:09.784Z,18.00
2018-04-17T02:52:12.647Z,16.00
2018-04-17T02:53:15.497Z,17.00
2018-04-17T02:54:18.357Z,17.50
2018-04-17T02:55:21.233Z,18.50
2018-04-17T02:56:24.113Z,19.00
2018-04-17T02:57:27.257Z,23.00
2018-04-17T02:58:30.038Z,18.00
2018-04-17T02:59:32.872Z,17.25
2018-04-17T03:00:36.719Z,18.25
2018-04-17T03:01:39.632Z,22.00
2018-04-17T03:02:43.361Z,17.50
2018-04-17T03:03:46.495Z,14.00
2018-04-17T03:04:49.372Z,17.25
2018-04-17T03:05:52.211Z,20.25
2018-04-17T03:06:55.387Z,15.50
2018-04-17T03:07:58.246Z,17.00
2018-04-17T03:09:01.025Z,15.50
2018-04-17T03:10:04.086Z,14.00
2018-04-17T03:11:06.832Z,16.00
2018-04-17T03:12:09.719Z,17.00
2018-04-17T03:13:12.525Z,15.50
2018-04-17T03:14:15.338Z,15.75
2018-04-17T03:15:18.175Z,20.50
2018-04-17T03:16:21.245Z,16.25
2018-04-17T03:17:24.068Z,18.50
2018-04-17T03:18:26.866Z,16.00
2018-04-17T03:19:29.704Z,16.00
2018-04-17T03:20:32.805Z,19.00
2018-04-17T03:21:35.637Z,17.75
2018-04-17T03:22:38.737Z,17.50
2018-04-17T03:23:41.482Z,19.75
2018-04-17T03:24:44.307Z,18.25
2018-04-17T03:25:47.673Z,17.75
2018-04-17T03:26:50.515Z,19.00
2018-04-17T03:27:53.324Z,16.00
2018-04-17T03:28:56.441Z,16.00
2018-04-17T03:29:59.263Z,17.50
2018-04-17T03:31:02.098Z,16.00
2018-04-17T03:32:04.916Z,17.00
2018-04-17T03:33:07.781Z,14.00
2018-04-17T03:34:10.682Z,17.50
2018-04-17T03:35:13.894Z,18.75
2018-04-17T03:36:16.887Z,16.00
2018-04-17T03:37:19.734Z,21.50
2018-04-17T03:38:22.613Z,18.75
2018-04-17T03:39:25.508Z,17.50
2018-04-17T03:40:28.343Z,19.75
2018-04-17T03:41:31.529Z,21.00
2018-04-17T03:42:34.388Z,20.50
2018-04-17T03:43:37.244Z,16.50
2018-04-17T03:44:40.091Z,15.50
2018-04-17T03:45:42.974Z,18.00
2018-04-17T03:46:45.815Z,19.00
2018-04-17T03:47:48.959Z,21.00
2018-04-17T03:48:51.847Z,16.00
2018-04-17T03:49:54.608Z,18.00
2018-04-17T03:50:57.467Z,19.75
2018-04-17T03:52:00.278Z,17.75
2018-04-17T03:53:03.111Z,16.50
2018-04-17T03:54:05.930Z,16.75
2018-04-17T03:55:08.715Z,20.75
2018-04-17T03:56:11.532Z,16.50
2018-04-17T03:57:14.353Z,17.25
2018-04-17T03:58:17.142Z,16.75
2018-04-17T03:59:20.416Z,18.25
2018-04-17T04:00:23.284Z,19.75
2018-04-17T04:01:26.166Z,19.75
2018-04-17T04:02:29.014Z,19.25
2018-04-17T04:03:31.878Z,19.50
2018-04-17T04:04:34.734Z,18.50
2018-04-17T04:05:37.619Z,17.00
2018-04-17T04:06:40.664Z,16.50
2018-04-17T04:07:43.528Z,18.50
2018-04-17T04:08:46.372Z,20.25
2018-04-17T04:09:49.231Z,18.00
2018-04-17T04:10:52.307Z,18.00
2018-04-17T04:11:55.192Z,20.00
2018-04-17T04:12:58.112Z,19.00
2018-04-17T04:14:00.971Z,20.00
2018-04-17T04:15:03.887Z,20.75
2018-04-17T04:16:06.766Z,18.50
2018-04-17T04:17:09.898Z,14.00
2018-04-17T04:18:12.749Z,17.00
2018-04-17T04:19:15.666Z,19.00
2018-04-17T04:20:19.648Z,20.00
2018-04-17T04:21:22.535Z,18.00
2018-04-17T04:22:25.392Z,18.00
2018-04-17T04:23:28.542Z,20.50
2018-04-17T04:24:31.427Z,19.00
2018-04-17T04:25:35.434Z,19.00
2018-04-17T04:26:38.369Z,16.00
2018-04-17T04:27:41.496Z,16.50
2018-04-17T04:28:44.341Z,20.00
2018-04-17T04:29:47.534Z,15.50
2018-04-17T04:30:50.455Z,16.50
2018-04-17T04:31:53.427Z,19.00
2018-04-17T04:32:56.284Z,14.00
2018-04-17T04:33:59.268Z,21.00
2018-04-17T04:35:02.122Z,18.00
2018-04-17T04:36:05.495Z,21.25
2018-04-17T04:37:08.345Z,17.00
2018-04-17T04:38:11.203Z,19.50
2018-04-17T04:39:14.134Z,21.75
2018-04-17T04:40:17.006Z,18.00
2018-04-17T04:41:19.831Z,20.00
2018-04-17T04:42:23.098Z,16.00
2018-04-17T04:43:25.975Z,16.50
2018-04-17T04:44:28.843Z,23.00
2018-04-17T04:45:31.704Z,19.50
2018-04-17T04:46:34.506Z,16.00
2018-04-17T04:47:37.289Z,21.50
2018-04-17T04:48:40.077Z,23.75
2018-04-17T04:49:42.937Z,20.75
2018-04-17T04:50:45.929Z,18.00
2018-04-17T04:51:48.731Z,20.00
2018-04-17T04:52:51.600Z,17.00
2018-04-17T04:53:54.838Z,22.00
2018-04-17T04:54:57.637Z,20.50
2018-04-17T04:56:00.410Z,20.50
2018-04-17T04:57:03.186Z,19.50
2018-04-17T04:58:05.951Z,18.00
2018-04-17T04:59:08.847Z,19.75
2018-04-17T05:00:12.282Z,32.75
2018-04-17T05:01:15.239Z,24.00
2018-04-17T05:02:18.079Z,21.50
2018-04-17T05:03:20.904Z,20.00
2018-04-17T05:04:23.754Z,19.00
2018-04-17T05:05:26.608Z,22.50
2018-04-17T05:06:29.778Z,19.25
2018-04-17T05:07:32.700Z,17.50
2018-04-17T05:08:35.572Z,21.50
2018-04-17T05:09:38.447Z,24.25
2018-04-17T05:10:41.347Z,16.00
2018-04-17T05:11:44.318Z,19.50
2018-04-17T05:12:47.515Z,23.00
2018-04-17T05:13:50.564Z,18.00
2018-04-17T05:14:53.418Z,21.50
2018-04-17T05:15:56.214Z,24.75
2018-04-17T05:16:59.091Z,22.50
2018-04-17T05:18:01.876Z,21.50
2018-04-17T05:19:04.983Z,19.50
2018-04-17T05:20:07.775Z,17.50
2018-04-17T05:21:10.653Z,20.50
2018-04-17T05:22:13.528Z,16.50
2018-04-17T05:23:16.429Z,21.50
2018-04-17T05:24:19.301Z,21.75
2018-04-17T05:25:22.417Z,21.50
2018-04-17T05:26:25.264Z,21.50
2018-04-17T05:27:27.948Z,20.00
2018-04-17T05:28:30.718Z,22.50
2018-04-17T05:29:33.576Z,18.50
2018-04-17T05:30:36.405Z,17.50
2018-04-17T05:31:39.710Z,21.50
2018-04-17T05:32:42.564Z,23.00
2018-04-17T05:33:45.492Z,20.00
2018-04-17T05:34:48.388Z,18.00
2018-04-17T05:35:51.257Z,18.50
2018-04-17T05:36:54.178Z,22.50
2018-04-17T05:37:57.044Z,20.00
2018-04-17T05:38:59.949Z,23.75
2018-04-17T05:40:02.837Z,21.00
2018-04-17T05:41:06.252Z,18.00
2018-04-17T05:42:09.182Z,19.00
2018-04-17T05:43:12.384Z,22.00
2018-04-17T05:44:15.279Z,20.50
2018-04-17T05:45:18.259Z,21.00
2018-04-17T05:46:21.153Z,18.00
2018-04-17T05:47:24.022Z,20.00
2018-04-17T05:48:26.882Z,18.00
2018-04-17T05:49:30.277Z,22.50
2018-04-17T05:50:33.120Z,14.50
2018-04-17T05:51:36.016Z,20.00
2018-04-17T05:52:38.918Z,21.75
2018-04-17T05:53:41.827Z,18.00
2018-04-17T05:54:44.727Z,21.00
2018-04-17T05:55:48.116Z,22.75
2018-04-17T05:56:51.077Z,18.00
2018-04-17T05:57:54.203Z,21.75
2018-04-17T05:58:57.165Z,17.75
2018-04-17T06:00:00.069Z,19.00
2018-04-17T06:01:03.014Z,22.50
2018-04-17T06:02:06.163Z,17.00
2018-04-17T06:03:09.004Z,23.00
2018-04-17T06:04:11.859Z,21.00
2018-04-17T06:05:14.794Z,24.75
2018-04-17T06:06:17.631Z,18.75
2018-04-17T06:07:20.528Z,20.00
2018-04-17T06:08:23.397Z,22.00
2018-04-17T06:09:26.323Z,21.00
2018-04-17T06:10:29.188Z,22.00
2018-04-17T06:11:32.118Z,23.75
2018-04-17T06:12:34.992Z,24.25
2018-04-17T06:13:38.178Z,22.50
2018-04-17T06:14:41.135Z,23.25
2018-04-17T06:15:44.024Z,25.25
2018-04-17T06:16:46.891Z,25.00
2018-04-17T06:17:49.695Z,21.50
2018-04-17T06:18:52.601Z,24.00
2018-04-17T06:19:56.223Z,24.00
2018-04-17T06:20:59.214Z,22.50
2018-04-17T06:22:02.067Z,22.00
2018-04-17T06:23:05.103Z,22.75
2018-04-17T06:24:08.040Z,26.00
2018-04-17T06:25:11.017Z,27.00
2018-04-17T06:26:14.237Z,26.00
2018-04-17T06:27:17.068Z,27.75
2018-04-17T06:28:19.894Z,28.50
2018-04-17T06:29:22.847Z,26.00
2018-04-17T06:30:25.822Z,26.00
2018-04-17T06:31:28.829Z,30.50
2018-04-17T06:32:32.414Z,32.25
2018-04-17T06:33:35.312Z,29.50
2018-04-17T06:34:38.151Z,37.50
2018-04-17T06:35:40.891Z,31.75
2018-04-17T06:36:43.750Z,34.00
2018-04-17T06:37:46.671Z,38.00
2018-04-17T06:38:49.538Z,36.25
2018-04-17T06:39:52.491Z,37.50
2018-04-17T06:40:55.423Z,36.75
2018-04-17T06:41:58.340Z,33.25
2018-04-17T06:43:01.213Z,40.75
2018-04-17T06:44:04.551Z,31.50
2018-04-17T06:45:08.028Z,31.00
2018-04-17T06:46:11.004Z,31.75
2018-04-17T06:47:13.900Z,29.50
2018-04-17T06:48:16.870Z,32.75
2018-04-17T06:49:19.812Z,33.50
2018-04-17T06:50:23.140Z,35.25
2018-04-17T06:51:26.058Z,32.25
2018-04-17T06:52:28.942Z,29.25
2018-04-17T06:53:31.880Z,30.00
2018-04-17T06:54:34.795Z,31.25
2018-04-17T06:55:37.667Z,29.00
2018-04-17T06:56:40.928Z,30.00
2018-04-17T06:57:43.847Z,35.00
2018-04-17T06:58:46.803Z,27.25
2018-04-17T06:59:49.704Z,30.25
2018-04-17T07:00:52.533Z,33.00
2018-04-17T07:01:55.364Z,32.25
2018-04-17T07:02:58.749Z,32.50
2018-04-17T07:04:01.660Z,32.25
2018-04-17T07:05:04.604Z,30.25
2018-04-17T07:06:07.553Z,35.25
2018-04-17T07:07:10.460Z,33.00
2018-04-17T07:08:13.321Z,32.50
2018-04-17T07:09:16.564Z,33.25
2018-04-17T07:10:19.566Z,32.75
2018-04-17T07:11:22.507Z,29.00
2018-04-17T07:12:25.543Z,31.00
2018-04-17T07:13:28.544Z,34.75
2018-04-17T07:14:31.716Z,34.50
2018-04-17T07:15:35.161Z,32.25
2018-04-17T07:16:38.224Z,31.75
2018-04-17T07:17:41.200Z,34.75
2018-04-17T07:18:44.152Z,37.25
2018-04-17T07:19:47.139Z,27.50
2018-04-17T07:20:50.108Z,31.50
2018-04-17T07:21:53.460Z,36.25
2018-04-17T07:22:56.431Z,34.00
2018-04-17T07:23:59.315Z,33.75
2018-04-17T07:25:02.249Z,27.50
2018-04-17T07:26:05.302Z,31.50
2018-04-17T07:27:08.222Z,30.00
2018-04-17T07:28:11.529Z,29.25
2018-04-17T07:29:15.915Z,31.50
2018-04-17T07:30:18.954Z,32.50
2018-04-17T07:31:22.723Z,29.25
2018-04-17T07:32:26.025Z,30.00
2018-04-17T07:33:30.267Z,33.00
2018-04-17T07:34:33.514Z,30.25
2018-04-17T07:35:37.357Z,33.00
2018-04-17T07:36:40.651Z,32.50
2018-04-17T07:37:44.090Z,34.25
2018-04-17T07:38:47.048Z,32.00
2018-04-17T07:39:50.283Z,28.50
2018-04-17T07:40:53.187Z,30.00
2018-04-17T07:41:56.092Z,26.25
2018-04-17T07:42:59.042Z,33.25
2018-04-17T07:44:02.308Z,31.25
2018-04-17T07:45:05.564Z,25.25
2018-04-17T07:46:08.932Z,31.75
2018-04-17T07:47:11.870Z,26.00
2018-04-17T07:48:14.883Z,27.25
2018-04-17T07:49:19.064Z,30.50
2018-04-17T07:50:23.098Z,30.75
2018-04-17T07:51:26.185Z,29.00
2018-04-17T07:52:29.544Z,27.50
2018-04-17T07:53:32.959Z,27.00
2018-04-17T07:54:36.239Z,26.50
2018-04-17T07:55:39.373Z,29.75
2018-04-17T07:56:42.728Z,31.75
2018-04-17T07:57:45.608Z,30.50
2018-04-17T07:58:49.627Z,28.50
2018-04-17T07:59:56.164Z,29.00
2018-04-17T08:00:59.521Z,29.00
2018-04-17T08:02:02.485Z,25.75
2018-04-17T08:03:05.514Z,26.50
2018-04-17T08:04:08.401Z,26.00
2018-04-17T08:05:12.293Z,27.50
2018-04-17T08:06:16.211Z,29.75
2018-04-17T08:07:19.240Z,26.00
2018-04-17T08:08:22.089Z,26.50
2018-04-17T08:09:25.086Z,27.75
2018-04-17T08:10:28.980Z,27.25
2018-04-17T08:11:33.081Z,24.25
2018-04-17T08:12:36.179Z,28.50
2018-04-17T08:13:40.468Z,25.75
2018-04-17T08:14:44.175Z,27.25
2018-04-17T08:15:47.377Z,26.00
2018-04-17T08:16:52.009Z,24.75
2018-04-17T08:17:55.651Z,24.00
2018-04-17T08:19:03.586Z,24.00
2018-04-17T08:20:06.688Z,24.00
2018-04-17T08:21:09.842Z,20.75
2018-04-17T08:22:12.722Z,25.75
2018-04-17T08:23:15.891Z,23.50
2018-04-17T08:24:19.707Z,23.75
2018-04-17T08:25:22.742Z,25.75
2018-04-17T08:26:25.741Z,22.50
2018-04-17T08:27:28.662Z,26.75
2018-04-17T08:28:31.692Z,22.75
2018-04-17T08:29:35.228Z,23.50
2018-04-17T08:30:38.560Z,21.50
2018-04-17T08:31:41.727Z,18.50
2018-04-17T08:32:44.675Z,21.25
2018-04-17T08:33:48.989Z,20.75
2018-04-17T08:34:53.499Z,19.75
2018-04-17T08:35:57.063Z,19.25
2018-04-17T08:37:00.468Z,18.75
2018-04-17T08:38:03.363Z,20.50
2018-04-17T08:39:06.217Z,17.50
2018-04-17T08:40:09.647Z,17.25
2018-04-17T08:41:12.820Z,20.25
2018-04-17T08:42:16.253Z,17.00
2018-04-17T08:43:19.534Z,19.75
2018-04-17T08:44:23.099Z,17.25
2018-04-17T08:45:28.370Z,17.25
2018-04-17T08:46:33.694Z,19.50
2018-04-17T08:47:38.648Z,17.50
2018-04-17T08:48:46.022Z,17.75
2018-04-17T08:49:50.448Z,15.75
2018-04-17T08:50:55.658Z,16.75
2018-04-17T08:52:01.842Z,15.50
2018-04-17T08:53:05.004Z,15.25
2018-04-17T08:54:09.870Z,19.00
2018-04-17T08:55:15.814Z,17.25
2018-04-17T08:56:20.475Z,15.50
2018-04-17T08:57:23.541Z,18.50
2018-04-17T08:58:26.525Z,19.00
2018-04-17T08:59:29.483Z,17.25
2018-04-17T09:00:32.312Z,17.00
2018-04-17T09:01:35.727Z,15.25
2018-04-17T09:02:38.710Z,17.00
2018-04-17T09:03:41.653Z,16.00
2018-04-17T09:04:44.565Z,16.75
2018-04-17T09:05:47.528Z,18.25
2018-04-17T09:06:50.487Z,16.00
2018-04-17T09:07:54.119Z,14.50
2018-04-17T09:08:57.126Z,15.00
2018-04-17T09:10:00.428Z,15.25
2018-04-17T09:11:03.441Z,14.50
2018-04-17T09:12:06.622Z,14.25
2018-04-17T09:13:10.622Z,18.00
2018-04-17T09:14:13.887Z,14.50
2018-04-17T09:15:16.855Z,13.25
2018-04-17T09:16:21.038Z,16.25
2018-04-17T09:17:23.918Z,13.00
2018-04-17T09:18:26.926Z,19.25
2018-04-17T09:19:31.720Z,19.00
2018-04-17T09:20:35.012Z,18.75
2018-04-17T09:21:37.854Z,16.25
2018-04-17T09:22:40.657Z,16.50
2018-04-17T09:23:43.574Z,15.00
2018-04-17T09:24:46.471Z,13.25
2018-04-17T09:25:49.431Z,15.75
2018-04-17T09:26:52.306Z,19.50
2018-04-17T09:27:55.238Z,20.00
2018-04-17T09:28:58.187Z,16.50
2018-04-17T09:30:01.166Z,17.50
2018-04-17T09:31:04.200Z,18.75
2018-04-17T09:32:07.779Z,21.50
2018-04-17T09:33:10.687Z,22.25
2018-04-17T09:34:15.638Z,23.50
2018-04-17T09:35:18.627Z,21.00
2018-04-17T09:36:21.572Z,20.50
2018-04-17T09:37:24.497Z,23.25
2018-04-17T09:38:28.438Z,17.25
2018-04-17T09:39:31.265Z,21.50
2018-04-17T09:40:34.112Z,21.75
2018-04-17T09:41:37.949Z,21.50
2018-04-17T09:42:40.955Z,21.00
2018-04-17T09:43:43.922Z,18.75
2018-04-17T09:44:47.628Z,17.00
2018-04-17T09:45:50.503Z,21.00
2018-04-17T09:46:53.535Z,18.50
2018-04-17T09:47:57.761Z,16.75
2018-04-17T09:49:00.933Z,17.00
2018-04-17T09:50:04.537Z,18.50
2018-04-17T09:51:09.908Z,16.25
2018-04-17T09:52:13.332Z,15.00
2018-04-17T09:53:16.287Z,16.50
2018-04-17T09:54:20.074Z,18.00
2018-04-17T09:55:23.059Z,23.00
2018-04-17T09:56:26.035Z,20.00
2018-04-17T09:57:29.861Z,17.50
2018-04-17T09:58:36.119Z,19.00
2018-04-17T09:59:39.048Z,20.50
2018-04-17T10:00:46.002Z,15.75
2018-04-17T10:01:49.507Z,19.50
2018-04-17T10:02:52.994Z,21.75
2018-04-17T10:03:57.035Z,21.25
2018-04-17T10:05:01.831Z,19.25
2018-04-17T10:06:05.622Z,22.75
2018-04-17T10:07:08.487Z,17.00
2018-04-17T10:08:11.346Z,18.00
2018-04-17T10:09:15.510Z,19.75
2018-04-17T10:10:18.371Z,22.50
2018-04-17T10:11:21.093Z,21.25
2018-04-17T10:12:24.552Z,17.25
2018-04-17T10:13:28.491Z,17.75
2018-04-17T10:14:31.648Z,20.75
2018-04-17T10:15:35.109Z,16.25
2018-04-17T10:16:37.975Z,16.75
2018-04-17T10:17:40.849Z,17.00
2018-04-17T10:18:43.787Z,18.25
2018-04-17T10:19:47.043Z,15.25
2018-04-17T10:20:50.455Z,17.00
2018-04-17T10:21:53.677Z,16.00
2018-04-17T10:22:57.983Z,18.50
2018-04-17T10:24:01.644Z,16.50
2018-04-17T10:25:04.504Z,15.75
2018-04-17T10:26:08.094Z,18.00
2018-04-17T10:27:12.917Z,20.00
2018-04-17T10:28:16.538Z,18.00
2018-04-17T10:29:19.808Z,14.75
2018-04-17T10:30:22.825Z,18.00
2018-04-17T10:31:25.616Z,16.50
2018-04-17T10:32:29.241Z,17.50
2018-04-17T10:33:32.483Z,20.00
2018-04-17T10:34:35.781Z,18.00
2018-04-17T10:35:38.775Z,24.00
2018-04-17T10:36:42.797Z,18.00
2018-04-17T10:37:45.753Z,17.25
2018-04-17T10:38:48.693Z,14.50
2018-04-17T10:39:51.937Z,17.75
2018-04-17T10:40:56.165Z,19.00
2018-04-17T10:41:59.040Z,16.00
2018-04-17T10:43:01.963Z,19.00
2018-04-17T10:44:04.813Z,23.75
2018-04-17T10:45:07.710Z,18.75
2018-04-17T10:46:11.205Z,21.00
2018-04-17T10:47:16.004Z,17.00
2018-04-17T10:48:18.799Z,18.25
2018-04-17T10:49:22.237Z,22.50
2018-04-17T10:50:25.115Z,19.25
2018-04-17T10:51:28.136Z,17.00
2018-04-17T10:52:31.691Z,18.00
2018-04-17T10:53:34.871Z,18.50
2018-04-17T10:54:38.056Z,20.50
2018-04-17T10:55:40.988Z,22.00
2018-04-17T10:56:44.069Z,21.75
2018-04-17T10:57:47.108Z,23.25
2018-04-17T10:58:50.414Z,24.50
2018-04-17T10:59:55.044Z,24.25
2018-04-17T11:00:57.959Z,22.50
2018-04-17T11:02:01.733Z,22.75
2018-04-17T11:03:04.670Z,20.50
2018-04-17T11:04:08.340Z,25.75
2018-04-17T11:05:11.247Z,20.50
2018-04-17T11:06:15.332Z,22.75
2018-04-17T11:07:18.232Z,25.00
2018-04-17T11:08:21.070Z,27.50
2018-04-17T11:09:24.004Z,24.75
2018-04-17T11:10:26.993Z,25.75
2018-04-17T11:11:29.992Z,19.00
2018-04-17T11:12:33.264Z,19.75
2018-04-17T11:13:37.234Z,17.75
2018-04-17T11:14:40.084Z,25.75
2018-04-17T11:15:42.969Z,23.75
2018-04-17T11:16:46.110Z,20.25
2018-04-17T11:17:49.151Z,25.25
2018-04-17T11:18:52.782Z,22.25
2018-04-17T11:19:55.734Z,21.25
2018-04-17T11:20:58.660Z,20.50
2018-04-17T11:22:01.556Z,19.75
2018-04-17T11:23:04.479Z,25.25
2018-04-17T11:24:07.375Z,21.50
2018-04-17T11:25:10.833Z,20.75
2018-04-17T11:26:13.763Z,20.25
2018-04-17T11:27:16.781Z,19.00
2018-04-17T11:28:19.712Z,18.25
2018-04-17T11:29:22.611Z,21.75
2018-04-17T11:30:25.500Z,22.00
2018-04-17T11:31:28.476Z,21.00
2018-04-17T11:32:31.354Z,19.00
2018-04-17T11:33:34.388Z,22.00
2018-04-17T11:34:38.170Z,21.50
2018-04-17T11:35:42.141Z,25.00
2018-04-17T11:36:45.218Z,23.75
2018-04-17T11:37:48.466Z,22.25
2018-04-17T11:38:51.499Z,24.00
2018-04-17T11:39:54.478Z,22.50
2018-04-17T11:40:57.407Z,25.25
2018-04-17T11:42:00.271Z,19.00
2018-04-17T11:43:03.543Z,19.50
2018-04-17T11:44:07.087Z,23.00
2018-04-17T11:45:10.069Z,26.25
2018-04-17T11:46:12.899Z,26.50
2018-04-17T11:47:15.859Z,22.50
2018-04-17T11:48:18.754Z,23.00
2018-04-17T11:49:22.709Z,24.50
2018-04-17T11:50:26.353Z,24.50
2018-04-17T11:51:29.203Z,22.50
2018-04-17T11:52:33.069Z,20.50
2018-04-17T11:53:36.088Z,25.25
2018-04-17T11:54:39.098Z,22.75
2018-04-17T11:55:42.000Z,21.50
2018-04-17T11:56:45.365Z,22.25
2018-04-17T11:57:49.739Z,22.00
2018-04-17T11:58:52.653Z,22.25
2018-04-17T11:59:55.684Z,22.50
2018-04-17T12:00:58.677Z,24.50
2018-04-17T12:02:01.590Z,23.50
2018-04-17T12:03:05.024Z,26.50
2018-04-17T12:04:07.966Z,23.00
2018-04-17T12:05:10.864Z,18.00
2018-04-17T12:06:13.694Z,21.50
2018-04-17T12:07:16.496Z,25.00
2018-04-17T12:08:19.320Z,22.00
2018-04-17T12:09:22.728Z,20.75
2018-04-17T12:10:26.138Z,21.00
2018-04-17T12:11:29.048Z,24.00
2018-04-17T12:12:31.902Z,19.00
2018-04-17T12:13:34.755Z,20.00
2018-04-17T12:14:39.094Z,19.00
2018-04-17T12:15:42.503Z,24.00
2018-04-17T12:16:45.270Z,26.00
2018-04-17T12:17:48.091Z,23.25
2018-04-17T12:18:51.788Z,26.50
2018-04-17T12:19:55.107Z,23.25
2018-04-17T12:20:58.050Z,21.25
2018-04-17T12:22:01.224Z,24.75
2018-04-17T12:23:04.184Z,25.50
2018-04-17T12:24:08.348Z,24.25
2018-04-17T12:25:12.889Z,22.00
2018-04-17T12:26:15.738Z,21.00
2018-04-17T12:27:18.633Z,22.75
2018-04-17T12:28:21.990Z,20.25
2018-04-17T12:29:26.026Z,17.75
2018-04-17T12:30:31.453Z,22.00
2018-04-17T12:31:35.246Z,21.00
2018-04-17T12:32:38.151Z,23.00
2018-04-17T12:33:41.096Z,21.25
2018-04-17T12:34:44.717Z,24.00
2018-04-17T12:35:47.958Z,21.25
2018-04-17T12:36:53.254Z,20.75
2018-04-17T12:37:56.669Z,21.50
2018-04-17T12:38:59.756Z,21.00
2018-04-17T12:40:04.071Z,21.50
2018-04-17T12:41:09.558Z,23.00
2018-04-17T12:42:12.411Z,20.25
2018-04-17T12:43:15.651Z,24.00
2018-04-17T12:44:18.489Z,17.25
2018-04-17T12:45:21.336Z,20.75
2018-04-17T12:46:25.505Z,17.50
2018-04-17T12:47:28.846Z,19.75
2018-04-17T12:48:31.700Z,20.50
2018-04-17T12:49:35.121Z,20.50
2018-04-17T12:50:38.142Z,19.75
2018-04-17T12:51:42.107Z,20.25
2018-04-17T12:52:45.733Z,16.75
2018-04-17T12:53:48.958Z,21.25
2018-04-17T12:54:51.792Z,22.00
2018-04-17T12:55:55.214Z,21.75
2018-04-17T12:56:58.989Z,19.75
2018-04-17T12:58:02.030Z,21.00
2018-04-17T13:00:13.604Z,22.00
2018-04-17T13:01:16.358Z,19.50
2018-04-17T13:02:19.857Z,22.75
2018-04-17T13:03:22.639Z,20.00
2018-04-17T13:04:25.624Z,25.50
2018-04-17T13:05:28.469Z,20.00
2018-04-17T13:06:31.677Z,23.25
2018-04-17T13:07:34.666Z,21.00
2018-04-17T13:08:37.537Z,20.00
2018-04-17T13:09:40.366Z,21.25
2018-04-17T13:10:43.206Z,20.00
2018-04-17T13:11:47.069Z,21.75
2018-04-17T13:12:50.275Z,25.25
2018-04-17T13:13:53.099Z,25.75
2018-04-17T13:14:56.306Z,23.75
2018-04-17T13:15:59.250Z,19.25
2018-04-17T13:17:02.245Z,23.25
2018-04-17T13:18:05.157Z,23.25
2018-04-17T13:19:08.278Z,22.75
2018-04-17T13:20:11.143Z,21.00
2018-04-17T13:21:14.380Z,20.75
2018-04-17T13:22:17.632Z,23.75
2018-04-17T13:23:20.531Z,18.50
2018-04-17T13:24:23.594Z,16.75
2018-04-17T13:25:27.249Z,18.75
2018-04-17T13:26:31.132Z,22.00
2018-04-17T13:27:34.389Z,18.00
2018-04-17T13:28:37.793Z,18.50
2018-04-17T13:29:40.637Z,18.00
2018-04-17T13:30:43.579Z,22.00
2018-04-17T13:31:47.036Z,20.75
2018-04-17T13:32:50.094Z,22.00
2018-04-17T13:33:52.982Z,19.75